This is the latest recevied weather packets stored in our database for station/object DL9GJ-6. If no packets are shown the sender has not sent any weather packets the latest 10 day(s).
| Time | Temp. | Humidity | Pressure | Rain* | Wind** | Luminosity | Snow |
|---|---|---|---|---|---|---|---|
| 1777577451 | 10.56° C | 38% | 1025.2 hPa | 0 mm | - | 0 W/m² | - |
| 1777577398 | 10.56° C | 38% | 1025.2 hPa | 0 mm | - | 0 W/m² | - |
| 1777577089 | 10.56° C | 37% | 1025.2 hPa | 0 mm | - | 0 W/m² | - |
| 1777577037 | 10.56° C | 37% | 1025.2 hPa | 0 mm | - | 0 W/m² | - |
| 1777576729 | 10.56° C | 37% | 1025.1 hPa | 0 mm | - | 0 W/m² | - |
| 1777576677 | 10.56° C | 37% | 1025.1 hPa | 0 mm | - | 0 W/m² | - |
| 1777576317 | 10.56° C | 37% | 1025.2 hPa | 0 mm | - | 0 W/m² | - |
| 1777575958 | 11.11° C | 36% | 1025.1 hPa | 0 mm | - | 0 W/m² | - |
| 1777575651 | 11.11° C | 36% | 1025.1 hPa | 0 mm | - | 0 W/m² | - |
| 1777575597 | 11.11° C | 36% | 1025 hPa | 0 mm | - | 0 W/m² | - |
| 1777575237 | 11.11° C | 35% | 1024.9 hPa | 0 mm | - | 0 W/m² | - |
| 1777574878 | 11.11° C | 36% | 1024.8 hPa | 0 mm | - | 0 W/m² | - |
| 1777574518 | 11.67° C | 36% | 1024.8 hPa | 0 mm | - | 0 W/m² | - |
| 1777574208 | 11.67° C | 35% | 1024.7 hPa | 0 mm | - | 0 W/m² | - |
| 1777574158 | 11.67° C | 35% | 1024.7 hPa | 0 mm | - | 0 W/m² | - |
| 1777573797 | 12.22° C | 34% | 1024.7 hPa | 0 mm | - | 6 W/m² | - |
| 1777573438 | 12.22° C | 33% | 1024.7 hPa | 0 mm | - | 8 W/m² | - |
| 1777573079 | 12.78° C | 33% | 1024.6 hPa | 0 mm | - | 10 W/m² | - |
| 1777572719 | 12.78° C | 32% | 1024.6 hPa | 0 mm | - | 11 W/m² | - |
| 1777572409 | 12.78° C | 32% | 1024.6 hPa | 0 mm | - | 12 W/m² | - |
| 1777572359 | 12.78° C | 32% | 1024.6 hPa | 0 mm | - | 12 W/m² | - |
| 1777572063 | 13.33° C | 31% | 1024.4 hPa | 0 mm | - | 16 W/m² | - |
| 1777571997 | 12.78° C | 31% | 1024.4 hPa | 0 mm | - | 15 W/m² | - |
| 1777571689 | 13.33° C | 31% | 1024.4 hPa | 0 mm | - | 16 W/m² | - |
| 1777571637 | 13.33° C | 31% | 1024.4 hPa | 0 mm | - | 16 W/m² | - |
* Rain latest hour (hover to see other rain measurements)
** Current wind speed in m/s (hover to see current wind gust speed)